createdAt,value
2022-08-17T00:01:32.682Z,3.45
2022-08-17T00:04:19.004Z,3.70
2022-08-17T00:06:45.826Z,4.25
2022-08-17T00:09:12.778Z,4.07
2022-08-17T00:12:34.743Z,4.25
2022-08-17T00:14:32.130Z,4.82
2022-08-17T00:16:58.821Z,4.57
2022-08-17T00:19:26.359Z,4.10
2022-08-17T00:22:33.076Z,4.57
2022-08-17T00:24:43.061Z,4.57
2022-08-17T00:27:09.730Z,5.22
2022-08-17T00:29:36.399Z,4.60
2022-08-17T00:33:12.481Z,4.22
2022-08-17T00:34:50.714Z,4.10
2022-08-17T00:37:17.377Z,4.13
2022-08-17T00:39:44.310Z,4.97
2022-08-17T00:42:18.766Z,4.60
2022-08-17T00:44:46.046Z,5.90
2022-08-17T00:47:12.696Z,6.35
2022-08-17T00:49:39.482Z,4.65
2022-08-17T00:52:15.348Z,3.88
2022-08-17T00:54:46.370Z,4.38
2022-08-17T00:57:21.274Z,4.10
2022-08-17T01:00:01.570Z,4.57
2022-08-17T01:02:40.511Z,4.10
2022-08-17T01:05:23.646Z,4.05
2022-08-17T01:07:53.140Z,3.83
2022-08-17T01:10:58.840Z,4.78
2022-08-17T01:13:12.424Z,3.72
2022-08-17T01:15:46.323Z,3.85
2022-08-17T01:18:13.622Z,4.30
2022-08-17T01:20:49.350Z,4.00
2022-08-17T01:23:19.879Z,4.40
2022-08-17T01:25:57.101Z,4.05
2022-08-17T01:28:36.185Z,4.10
2022-08-17T01:31:13.816Z,4.38
2022-08-17T01:33:40.664Z,3.38
2022-08-17T01:36:08.258Z,4.38
2022-08-17T01:38:37.011Z,3.83
2022-08-17T01:41:08.099Z,3.65
2022-08-17T01:43:51.008Z,4.05
2022-08-17T01:46:24.066Z,3.83
2022-08-17T01:48:51.426Z,3.72
2022-08-17T01:51:19.031Z,3.70
2022-08-17T01:53:52.496Z,3.72
2022-08-17T01:56:23.226Z,3.30
2022-08-17T01:58:50.433Z,3.63
2022-08-17T02:01:20.275Z,3.60
2022-08-17T02:03:56.223Z,3.67
2022-08-17T02:06:53.745Z,3.50
2022-08-17T02:09:19.613Z,3.53
2022-08-17T02:11:49.925Z,3.30
2022-08-17T02:14:16.872Z,3.67
2022-08-17T02:16:43.957Z,4.32
2022-08-17T02:19:15.610Z,4.28
2022-08-17T02:21:47.700Z,4.28
2022-08-17T02:24:58.627Z,4.50
2022-08-17T02:27:07.046Z,4.22
2022-08-17T02:29:33.728Z,4.28
2022-08-17T02:32:01.811Z,4.70
2022-08-17T02:34:30.024Z,4.28
2022-08-17T02:36:56.665Z,4.88
2022-08-17T02:39:23.410Z,4.57
2022-08-17T02:41:50.320Z,4.63
2022-08-17T02:44:38.846Z,5.10
2022-08-17T02:47:04.139Z,4.60
2022-08-17T02:49:30.861Z,5.10
2022-08-17T02:51:58.196Z,5.20
2022-08-17T02:54:40.235Z,5.75
2022-08-17T02:57:10.052Z,5.70
2022-08-17T02:59:44.256Z,5.60
2022-08-17T03:02:15.123Z,5.80
2022-08-17T03:04:41.784Z,6.20
2022-08-17T03:07:08.668Z,5.35
2022-08-17T03:09:35.418Z,5.93
2022-08-17T03:12:07.454Z,6.10
2022-08-17T03:14:41.296Z,5.70
2022-08-17T03:17:09.914Z,5.07
2022-08-17T03:19:37.374Z,5.90
2022-08-17T03:22:35.713Z,5.88
2022-08-17T03:24:57.557Z,6.70
2022-08-17T03:27:24.197Z,6.45
2022-08-17T03:29:50.949Z,6.18
2022-08-17T03:32:20.488Z,6.80
2022-08-17T03:34:47.410Z,7.22
2022-08-17T03:37:14.711Z,7.03
2022-08-17T03:39:41.546Z,6.60
2022-08-17T03:42:31.327Z,7.18
2022-08-17T03:44:59.830Z,6.15
2022-08-17T03:47:45.545Z,6.40
2022-08-17T03:50:32.734Z,6.82
2022-08-17T03:53:19.143Z,6.55
2022-08-17T03:56:04.708Z,5.93
2022-08-17T03:58:31.506Z,5.90
2022-08-17T04:00:58.300Z,5.05
2022-08-17T04:03:24.977Z,5.95
2022-08-17T04:05:51.633Z,5.30
2022-08-17T04:08:18.287Z,5.10
2022-08-17T04:10:45.483Z,5.20
2022-08-17T04:13:12.812Z,4.70
2022-08-17T04:15:39.786Z,5.63
2022-08-17T04:18:07.620Z,4.68
2022-08-17T04:20:37.586Z,4.03
2022-08-17T04:23:13.982Z,4.55
2022-08-17T04:25:49.082Z,3.97
2022-08-17T04:28:17.111Z,5.05
2022-08-17T04:31:10.149Z,6.15
2022-08-17T04:33:37.896Z,6.85
2022-08-17T04:36:06.937Z,7.25
2022-08-17T04:38:39.081Z,6.18
2022-08-17T04:41:25.868Z,6.18
2022-08-17T04:43:56.035Z,5.25
2022-08-17T04:46:28.971Z,5.85
2022-08-17T04:48:57.455Z,4.85
2022-08-17T04:51:28.196Z,5.28
2022-08-17T04:53:58.034Z,5.07
2022-08-17T04:56:26.440Z,5.30
2022-08-17T04:58:57.831Z,5.22
2022-08-17T05:01:28.018Z,5.60
2022-08-17T05:04:21.446Z,4.75
2022-08-17T05:06:49.511Z,5.13
2022-08-17T05:09:17.686Z,5.07
2022-08-17T05:11:45.251Z,5.00
2022-08-17T05:14:12.452Z,5.45
2022-08-17T05:16:39.111Z,5.15
2022-08-17T05:19:05.802Z,5.00
2022-08-17T05:21:32.552Z,4.53
2022-08-17T05:23:59.530Z,3.75
2022-08-17T05:26:29.320Z,3.72
2022-08-17T05:28:59.434Z,3.25
2022-08-17T05:31:27.289Z,3.40
2022-08-17T05:33:53.978Z,3.53
2022-08-17T05:36:41.764Z,3.25
2022-08-17T05:39:07.714Z,3.35
2022-08-17T05:41:34.392Z,3.65
2022-08-17T05:44:01.037Z,3.17
2022-08-17T05:46:39.887Z,3.20
2022-08-17T05:49:08.081Z,3.10
2022-08-17T05:51:53.584Z,3.70
2022-08-17T05:54:58.382Z,3.67
2022-08-17T05:58:14.437Z,3.63
2022-08-17T06:01:02.842Z,3.35
2022-08-17T06:04:08.750Z,3.67
2022-08-17T06:06:53.931Z,3.40
2022-08-17T06:09:39.455Z,3.20
2022-08-17T06:12:33.878Z,3.38
2022-08-17T06:15:23.667Z,3.55
2022-08-17T06:17:57.557Z,3.13
2022-08-17T06:20:27.754Z,3.50
2022-08-17T06:28:08.572Z,4.05
2022-08-17T06:30:59.583Z,5.40
2022-08-17T06:33:37.361Z,4.47
2022-08-17T06:36:29.274Z,4.53
2022-08-17T06:39:10.979Z,4.68
2022-08-17T06:41:56.306Z,4.90
2022-08-17T06:44:51.184Z,5.53
2022-08-17T06:47:30.125Z,5.93
2022-08-17T06:50:08.776Z,5.03
2022-08-17T06:52:50.003Z,5.00
2022-08-17T06:55:37.949Z,5.97
2022-08-17T06:58:15.891Z,5.57
2022-08-17T07:00:47.034Z,5.30
2022-08-17T07:03:27.876Z,5.57
2022-08-17T07:06:03.353Z,6.03
2022-08-17T07:08:53.964Z,6.43
2022-08-17T07:11:58.728Z,6.22
2022-08-17T07:14:31.757Z,5.57
2022-08-17T07:17:02.703Z,6.13
2022-08-17T07:19:33.210Z,5.50
2022-08-17T07:22:55.278Z,6.15
2022-08-17T07:25:21.344Z,5.85
2022-08-17T07:27:51.193Z,6.22
2022-08-17T07:30:25.300Z,6.45
2022-08-17T07:32:59.436Z,5.63
2022-08-17T07:35:31.228Z,6.10
2022-08-17T07:38:24.762Z,6.75
2022-08-17T07:41:02.008Z,6.32
2022-08-17T07:43:39.669Z,6.65
2022-08-17T07:46:42.908Z,7.45
2022-08-17T07:49:09.549Z,7.15
2022-08-17T07:51:42.401Z,6.90
2022-08-17T07:54:27.053Z,7.68
2022-08-17T07:56:56.320Z,7.32
2022-08-17T07:59:27.180Z,7.93
2022-08-17T08:02:03.629Z,8.07
2022-08-17T08:05:02.621Z,8.48
2022-08-17T08:07:40.016Z,8.25
2022-08-17T08:10:24.956Z,8.93
2022-08-17T08:13:01.373Z,9.40
2022-08-17T08:15:45.208Z,8.70
2022-08-17T08:18:54.424Z,7.78
2022-08-17T08:21:47.275Z,7.65
2022-08-17T08:24:36.656Z,6.88
2022-08-17T08:27:27.423Z,7.57
2022-08-17T08:30:04.962Z,8.07
2022-08-17T08:32:57.246Z,8.20
2022-08-17T08:35:52.438Z,8.13
2022-08-17T08:38:39.097Z,8.25
2022-08-17T08:41:30.388Z,8.15
2022-08-17T08:44:07.934Z,7.25
2022-08-17T08:46:43.762Z,8.10
2022-08-17T08:50:02.819Z,7.97
2022-08-17T08:52:51.581Z,6.38
2022-08-17T08:55:39.132Z,7.05
2022-08-17T08:58:31.313Z,6.95
2022-08-17T09:01:17.005Z,6.63
2022-08-17T09:04:17.854Z,7.20
2022-08-17T09:06:59.381Z,6.82
2022-08-17T09:09:55.129Z,7.78
2022-08-17T09:12:51.904Z,7.85
2022-08-17T09:15:25.565Z,6.88
2022-08-17T09:18:59.029Z,6.82
2022-08-17T09:21:18.187Z,7.25
2022-08-17T09:23:51.382Z,6.93
2022-08-17T09:26:22.888Z,6.60
2022-08-17T09:28:52.523Z,5.72
2022-08-17T09:31:33.255Z,6.07
2022-08-17T09:34:05.293Z,6.47
2022-08-17T09:36:39.243Z,7.57
2022-08-17T09:39:31.030Z,6.38
2022-08-17T09:42:19.842Z,6.25
2022-08-17T09:45:11.638Z,5.88
2022-08-17T09:47:57.873Z,5.57
2022-08-17T09:51:05.821Z,5.07
2022-08-17T09:53:37.976Z,4.65
2022-08-17T09:56:27.484Z,5.28
2022-08-17T09:59:38.475Z,4.28
2022-08-17T10:02:40.427Z,4.40
2022-08-17T10:05:22.734Z,4.22
2022-08-17T10:08:09.266Z,4.57
2022-08-17T10:10:56.339Z,4.07
2022-08-17T10:13:52.946Z,4.68
2022-08-17T10:16:23.313Z,3.80
2022-08-17T10:19:05.432Z,3.78
2022-08-17T10:22:00.770Z,4.25
2022-08-17T10:25:21.588Z,3.58
2022-08-17T10:27:51.307Z,4.15
2022-08-17T10:30:22.023Z,4.05
2022-08-17T10:32:59.653Z,4.60
2022-08-17T10:35:47.662Z,4.78
2022-08-17T10:38:37.060Z,4.60
2022-08-17T10:41:06.626Z,4.57
2022-08-17T10:43:57.902Z,5.18
2022-08-17T10:47:08.814Z,5.65
2022-08-17T10:49:47.371Z,6.30
2022-08-17T10:52:20.071Z,6.22
2022-08-17T10:54:58.204Z,6.07
2022-08-17T10:57:31.767Z,5.95
2022-08-17T11:00:15.350Z,7.30
2022-08-17T11:02:50.821Z,7.80
2022-08-17T11:05:20.699Z,6.85
2022-08-17T11:07:59.781Z,10.07
2022-08-17T11:11:10.089Z,8.35
2022-08-17T11:14:07.534Z,9.30
2022-08-17T11:16:40.166Z,9.30
2022-08-17T11:19:28.613Z,9.85
2022-08-17T11:22:13.402Z,9.05
2022-08-17T11:24:51.208Z,9.35
2022-08-17T11:27:28.626Z,9.23
2022-08-17T11:30:02.990Z,10.15
2022-08-17T11:32:54.667Z,9.32
2022-08-17T11:35:21.770Z,10.73
2022-08-17T11:38:16.292Z,9.80
2022-08-17T11:41:02.076Z,8.18
2022-08-17T11:43:57.864Z,9.45
2022-08-17T11:47:09.083Z,8.80
2022-08-17T11:50:28.031Z,7.50
2022-08-17T11:52:55.050Z,7.53
2022-08-17T11:55:37.531Z,6.47
2022-08-17T11:58:29.028Z,6.38
2022-08-17T12:00:58.141Z,5.25
2022-08-17T12:03:31.820Z,4.55
2022-08-17T12:06:17.012Z,4.93
2022-08-17T12:08:51.549Z,5.30
2022-08-17T12:11:55.488Z,4.72
2022-08-17T12:14:45.059Z,3.67
2022-08-17T12:17:25.893Z,2.17
2022-08-17T12:20:24.064Z,3.22
2022-08-17T12:23:19.802Z,3.35
2022-08-17T12:26:00.878Z,4.32
2022-08-17T12:28:33.696Z,3.63
2022-08-17T12:31:07.334Z,2.47
2022-08-17T12:33:37.129Z,3.42
2022-08-17T12:36:07.652Z,3.47
2022-08-17T12:38:37.847Z,4.60
2022-08-17T12:41:26.069Z,4.75
2022-08-17T12:43:58.614Z,4.15
2022-08-17T12:46:25.708Z,4.00
2022-08-17T12:48:59.014Z,4.65
2022-08-17T12:51:26.240Z,4.30
2022-08-17T12:53:55.383Z,3.63
2022-08-17T12:56:22.126Z,4.03
2022-08-17T12:58:55.520Z,3.65
2022-08-17T13:01:25.050Z,3.78
2022-08-17T13:03:54.966Z,3.60
2022-08-17T13:06:32.135Z,3.47
2022-08-17T13:09:10.400Z,3.70
2022-08-17T13:11:47.801Z,3.40
2022-08-17T13:14:18.306Z,3.13
2022-08-17T13:16:55.982Z,3.38
2022-08-17T13:19:40.516Z,2.83
2022-08-17T13:22:12.452Z,3.58
2022-08-17T13:25:03.586Z,2.70
2022-08-17T13:27:31.520Z,2.80
2022-08-17T13:30:12.051Z,2.90
2022-08-17T13:32:43.925Z,3.25
2022-08-17T13:35:47.664Z,2.92
2022-08-17T13:38:45.491Z,3.45
2022-08-17T13:41:34.597Z,2.90
2022-08-17T13:44:01.892Z,3.10
2022-08-17T13:46:34.077Z,3.20
2022-08-17T13:49:04.378Z,3.20
2022-08-17T13:51:45.788Z,3.00
2022-08-17T13:54:34.221Z,2.70
2022-08-17T13:57:02.466Z,2.47
2022-08-17T13:59:53.224Z,3.13
2022-08-17T14:02:21.560Z,2.95
2022-08-17T14:04:48.538Z,2.58
2022-08-17T14:07:16.026Z,2.92
2022-08-17T14:10:11.680Z,3.15
2022-08-17T14:12:40.480Z,2.58
2022-08-17T14:15:08.508Z,3.20
2022-08-17T14:17:38.930Z,2.72
2022-08-17T14:20:09.494Z,3.47
2022-08-17T14:22:38.897Z,3.35
2022-08-17T14:25:10.389Z,3.00
2022-08-17T14:27:43.594Z,3.15
2022-08-17T14:30:20.376Z,2.90
2022-08-17T14:32:51.968Z,2.60
2022-08-17T14:35:22.301Z,3.10
2022-08-17T14:40:20.324Z,3.60
2022-08-17T14:42:47.163Z,3.13
2022-08-17T14:45:29.720Z,3.42
2022-08-17T14:48:01.848Z,3.05
2022-08-17T14:50:28.476Z,3.15
2022-08-17T14:52:59.291Z,3.42
2022-08-17T14:55:28.321Z,3.20
2022-08-17T14:57:55.005Z,3.25
2022-08-17T15:00:21.689Z,3.45
2022-08-17T15:02:55.027Z,3.70
2022-08-17T15:05:24.567Z,3.22
2022-08-17T15:07:53.326Z,4.00
2022-08-17T15:10:20.881Z,4.32
2022-08-17T15:12:47.988Z,4.53
2022-08-17T15:15:17.426Z,6.45
2022-08-17T15:17:46.063Z,5.47
2022-08-17T15:20:16.116Z,5.07
2022-08-17T15:22:44.052Z,4.25
2022-08-17T15:25:11.067Z,3.95
2022-08-17T15:27:38.033Z,4.25
2022-08-17T15:30:07.311Z,4.10
2022-08-17T15:32:37.889Z,4.10
2022-08-17T15:35:06.530Z,4.40
2022-08-17T15:37:33.590Z,3.50
2022-08-17T15:40:03.689Z,3.60
2022-08-17T15:42:30.526Z,3.22
2022-08-17T15:44:57.405Z,3.95
2022-08-17T15:47:24.924Z,3.38
2022-08-17T15:49:55.481Z,3.53
2022-08-17T15:52:27.210Z,3.75
2022-08-17T15:54:59.724Z,3.38
2022-08-17T15:57:27.861Z,3.30
2022-08-17T15:59:59.055Z,3.30
2022-08-17T16:03:13.968Z,3.80
2022-08-17T16:05:21.946Z,2.97
2022-08-17T16:07:51.393Z,2.63
2022-08-17T16:10:19.217Z,3.08
2022-08-17T16:12:48.114Z,2.30
2022-08-17T16:15:16.207Z,2.67
2022-08-17T16:17:43.010Z,2.03
2022-08-17T16:20:20.003Z,2.20
2022-08-17T16:22:50.011Z,3.30
2022-08-17T16:25:49.024Z,2.25
2022-08-17T16:28:13.844Z,2.17
2022-08-17T16:30:41.194Z,2.38
2022-08-17T16:33:11.278Z,2.53
2022-08-17T16:35:38.427Z,2.45
2022-08-17T16:38:05.193Z,1.98
2022-08-17T16:40:36.108Z,2.45
2022-08-17T16:43:04.132Z,3.10
2022-08-17T16:45:36.685Z,2.58
2022-08-17T16:48:04.439Z,2.72
2022-08-17T16:50:32.265Z,3.10
2022-08-17T16:53:04.393Z,2.70
2022-08-17T16:55:31.090Z,2.40
2022-08-17T16:57:57.948Z,2.63
2022-08-17T17:00:24.619Z,2.67
2022-08-17T17:02:51.584Z,2.95
2022-08-17T17:05:43.361Z,3.28
2022-08-17T17:08:14.834Z,2.88
2022-08-17T17:10:55.218Z,2.80
2022-08-17T17:13:27.940Z,2.47
2022-08-17T17:16:00.107Z,2.85
2022-08-17T17:18:43.457Z,2.90
2022-08-17T17:21:14.323Z,3.00
2022-08-17T17:23:52.858Z,3.58
2022-08-17T17:26:44.794Z,3.20
2022-08-17T17:29:47.421Z,3.25
2022-08-17T17:32:39.374Z,2.70
2022-08-17T17:35:31.759Z,3.08
2022-08-17T17:38:03.698Z,3.33
2022-08-17T17:40:39.357Z,3.10
2022-08-17T17:43:37.019Z,2.92
2022-08-17T17:46:28.085Z,3.03
2022-08-17T17:48:53.839Z,3.00
2022-08-17T17:52:08.612Z,2.72
2022-08-17T17:55:00.931Z,3.28
2022-08-17T17:57:57.269Z,2.97
2022-08-17T18:00:30.529Z,2.67
2022-08-17T18:03:20.357Z,3.33
2022-08-17T18:05:49.782Z,3.13
2022-08-17T18:08:34.011Z,2.80
2022-08-17T18:11:09.705Z,2.90
2022-08-17T18:14:14.389Z,3.17
2022-08-17T18:16:42.756Z,3.03
2022-08-17T18:19:20.648Z,3.30
2022-08-17T18:22:02.619Z,2.38
2022-08-17T18:24:36.173Z,3.10
2022-08-17T18:27:26.241Z,2.97
2022-08-17T18:29:55.418Z,2.55
2022-08-17T18:32:29.926Z,3.13
2022-08-17T18:34:59.588Z,3.10
2022-08-17T18:37:36.920Z,3.20
2022-08-17T18:40:21.646Z,2.80
2022-08-17T18:43:05.444Z,3.08
2022-08-17T18:45:38.198Z,2.72
2022-08-17T18:48:07.067Z,3.38
2022-08-17T18:50:41.529Z,3.13
2022-08-17T18:53:20.972Z,3.30
2022-08-17T18:56:21.816Z,3.67
2022-08-17T18:58:58.870Z,3.15
2022-08-17T19:01:41.982Z,4.10
2022-08-17T19:04:27.760Z,3.58
2022-08-17T19:07:11.237Z,4.05
2022-08-17T19:09:45.616Z,3.63
2022-08-17T19:12:26.922Z,3.47
2022-08-17T19:14:56.129Z,3.38
2022-08-17T19:17:30.868Z,3.63
2022-08-17T19:20:10.164Z,3.50
2022-08-17T19:23:10.201Z,3.50
2022-08-17T19:25:44.339Z,4.03
2022-08-17T19:28:22.494Z,3.80
2022-08-17T19:30:55.418Z,4.20
2022-08-17T19:33:22.381Z,4.03
2022-08-17T19:36:26.198Z,3.95
2022-08-17T19:38:59.773Z,4.38
2022-08-17T19:41:43.746Z,4.63
2022-08-17T19:44:33.899Z,4.63
2022-08-17T19:47:43.058Z,4.70
2022-08-17T19:50:38.365Z,4.82
2022-08-17T19:54:01.809Z,4.47
2022-08-17T19:56:37.506Z,5.00
2022-08-17T19:59:21.292Z,5.47
2022-08-17T20:02:01.154Z,4.72
2022-08-17T20:04:35.443Z,4.38
2022-08-17T20:07:17.045Z,4.93
2022-08-17T20:10:06.526Z,4.75
2022-08-17T20:12:39.962Z,5.13
2022-08-17T20:15:15.492Z,4.82
2022-08-17T20:17:45.914Z,4.88
2022-08-17T20:20:40.729Z,4.95
2022-08-17T20:23:21.102Z,5.18
2022-08-17T20:25:53.672Z,5.28
2022-08-17T20:28:30.590Z,5.78
2022-08-17T20:30:58.378Z,5.65
2022-08-17T20:33:27.770Z,5.18
2022-08-17T20:36:13.344Z,5.60
2022-08-17T20:38:45.881Z,5.47
2022-08-17T20:41:20.742Z,5.15
2022-08-17T20:44:02.036Z,5.05
2022-08-17T20:46:38.118Z,4.90
2022-08-17T20:49:10.847Z,5.22
2022-08-17T20:52:01.289Z,5.32
2022-08-17T20:54:40.382Z,5.13
2022-08-17T20:57:14.184Z,5.68
2022-08-17T20:59:44.160Z,5.43
2022-08-17T21:02:19.976Z,5.47
2022-08-17T21:04:54.311Z,6.22
2022-08-17T21:07:43.359Z,5.32
2022-08-17T21:10:21.813Z,5.30
2022-08-17T21:13:13.355Z,4.93
2022-08-17T21:15:52.378Z,5.35
2022-08-17T21:18:50.310Z,4.28
2022-08-17T21:21:51.977Z,4.78
2022-08-17T21:24:40.143Z,5.00
2022-08-17T21:27:31.065Z,4.90
2022-08-17T21:30:10.231Z,4.80
2022-08-17T21:32:42.047Z,5.18
2022-08-17T21:35:23.448Z,5.00
2022-08-17T21:37:53.601Z,5.15
2022-08-17T21:40:29.753Z,5.50
2022-08-17T21:43:03.869Z,4.43
2022-08-17T21:45:36.248Z,4.68
2022-08-17T21:50:35.952Z,4.93
2022-08-17T21:53:04.036Z,4.82
2022-08-17T21:55:34.157Z,4.90
2022-08-17T21:58:14.178Z,4.75
2022-08-17T22:00:44.188Z,4.40
2022-08-17T22:03:24.207Z,4.88
2022-08-17T22:05:51.378Z,5.05
2022-08-17T22:08:22.030Z,4.70
2022-08-17T22:10:51.194Z,4.60
2022-08-17T22:13:17.935Z,4.63
2022-08-17T22:16:28.354Z,6.50
2022-08-17T22:18:58.265Z,6.13
2022-08-17T22:21:25.557Z,8.38
2022-08-17T22:24:15.352Z,9.10
2022-08-17T22:27:07.344Z,4.35
2022-08-17T22:29:45.237Z,4.80
2022-08-17T22:32:31.489Z,4.95
2022-08-17T22:35:36.000Z,4.85
2022-08-17T22:38:21.185Z,8.73
2022-08-17T22:40:51.886Z,8.40
2022-08-17T22:43:26.008Z,5.57
2022-08-17T22:45:56.806Z,7.18
2022-08-17T22:51:12.665Z,5.25
2022-08-17T22:54:09.158Z,7.75
2022-08-17T22:56:55.464Z,6.50
2022-08-17T22:59:43.692Z,6.15
2022-08-17T23:02:54.200Z,8.63
2022-08-17T23:05:23.992Z,9.32
2022-08-17T23:07:52.692Z,7.72
2022-08-17T23:10:19.545Z,6.03
2022-08-17T23:12:46.508Z,4.90
2022-08-17T23:15:18.959Z,4.25
2022-08-17T23:17:46.220Z,4.60
2022-08-17T23:20:15.617Z,4.45
2022-08-17T23:22:51.723Z,4.13
2022-08-17T23:25:25.803Z,4.55
2022-08-17T23:27:52.819Z,4.18
2022-08-17T23:30:19.960Z,4.90
2022-08-17T23:32:53.257Z,5.53
2022-08-17T23:35:20.206Z,4.63
2022-08-17T23:38:07.514Z,5.22
2022-08-17T23:40:34.575Z,5.50
2022-08-17T23:43:01.260Z,3.70
2022-08-17T23:45:32.634Z,3.78
2022-08-17T23:48:00.292Z,4.00
2022-08-17T23:50:29.999Z,3.60
2022-08-17T23:52:57.911Z,7.63
2022-08-17T23:55:24.616Z,5.78
2022-08-17T23:57:51.477Z,6.35
